sensor_id;sensor_type;location;lat;lon;timestamp;P1;durP1;ratioP1;P2;durP2;ratioP2
16626;SDS011;8427;52.204;7.202;2023-04-25T00:01:34;34.47;;;33.17;;
16626;SDS011;8427;52.204;7.202;2023-04-25T00:04:03;36.47;;;34.67;;
16626;SDS011;8427;52.204;7.202;2023-04-25T00:06:33;34.80;;;33.40;;
16626;SDS011;8427;52.204;7.202;2023-04-25T00:09:03;35.83;;;34.33;;
16626;SDS011;8427;52.204;7.202;2023-04-25T00:11:33;34.40;;;33.10;;
16626;SDS011;8427;52.204;7.202;2023-04-25T00:14:02;34.87;;;33.47;;
16626;SDS011;8427;52.204;7.202;2023-04-25T00:16:30;36.10;;;34.60;;
16626;SDS011;8427;52.204;7.202;2023-04-25T00:19:02;36.27;;;34.57;;
16626;SDS011;8427;52.204;7.202;2023-04-25T00:21:30;36.00;;;34.30;;
16626;SDS011;8427;52.204;7.202;2023-04-25T00:23:59;36.33;;;34.70;;
16626;SDS011;8427;52.204;7.202;2023-04-25T00:26:27;35.80;;;34.30;;
16626;SDS011;8427;52.204;7.202;2023-04-25T00:28:55;36.40;;;34.90;;
16626;SDS011;8427;52.204;7.202;2023-04-25T00:31:23;35.33;;;33.73;;
16626;SDS011;8427;52.204;7.202;2023-04-25T00:33:51;35.40;;;33.80;;
16626;SDS011;8427;52.204;7.202;2023-04-25T00:36:20;34.10;;;32.80;;
16626;SDS011;8427;52.204;7.202;2023-04-25T00:38:49;37.33;;;35.73;;
16626;SDS011;8427;52.204;7.202;2023-04-25T00:41:16;34.20;;;32.80;;
16626;SDS011;8427;52.204;7.202;2023-04-25T00:43:45;34.93;;;33.43;;
16626;SDS011;8427;52.204;7.202;2023-04-25T00:46:15;35.63;;;34.13;;
16626;SDS011;8427;52.204;7.202;2023-04-25T00:48:43;34.60;;;33.20;;
16626;SDS011;8427;52.204;7.202;2023-04-25T00:51:12;34.50;;;33.20;;
16626;SDS011;8427;52.204;7.202;2023-04-25T00:53:44;34.70;;;33.20;;
16626;SDS011;8427;52.204;7.202;2023-04-25T00:56:14;35.10;;;33.70;;
16626;SDS011;8427;52.204;7.202;2023-04-25T00:58:43;35.40;;;33.87;;
16626;SDS011;8427;52.204;7.202;2023-04-25T01:01:11;35.30;;;33.80;;
16626;SDS011;8427;52.204;7.202;2023-04-25T01:03:40;36.20;;;34.70;;
16626;SDS011;8427;52.204;7.202;2023-04-25T01:06:09;34.43;;;33.13;;
16626;SDS011;8427;52.204;7.202;2023-04-25T01:08:38;34.33;;;33.00;;
16626;SDS011;8427;52.204;7.202;2023-04-25T01:11:08;34.90;;;33.50;;
16626;SDS011;8427;52.204;7.202;2023-04-25T01:13:36;34.70;;;33.30;;
16626;SDS011;8427;52.204;7.202;2023-04-25T01:16:04;36.73;;;34.87;;
16626;SDS011;8427;52.204;7.202;2023-04-25T01:18:32;34.70;;;33.30;;
16626;SDS011;8427;52.204;7.202;2023-04-25T01:21:04;34.70;;;33.30;;
16626;SDS011;8427;52.204;7.202;2023-04-25T01:23:36;34.50;;;33.10;;
16626;SDS011;8427;52.204;7.202;2023-04-25T01:26:05;36.00;;;34.30;;
16626;SDS011;8427;52.204;7.202;2023-04-25T01:28:35;35.60;;;34.10;;
16626;SDS011;8427;52.204;7.202;2023-04-25T01:31:03;35.73;;;34.20;;
16626;SDS011;8427;52.204;7.202;2023-04-25T01:33:32;35.43;;;34.03;;
16626;SDS011;8427;52.204;7.202;2023-04-25T01:36:00;36.83;;;34.90;;
16626;SDS011;8427;52.204;7.202;2023-04-25T01:38:29;35.57;;;34.07;;
16626;SDS011;8427;52.204;7.202;2023-04-25T01:40:57;35.13;;;33.67;;
16626;SDS011;8427;52.204;7.202;2023-04-25T01:43:25;37.93;;;36.13;;
16626;SDS011;8427;52.204;7.202;2023-04-25T01:45:53;35.07;;;33.67;;
16626;SDS011;8427;52.204;7.202;2023-04-25T01:48:22;35.10;;;33.60;;
16626;SDS011;8427;52.204;7.202;2023-04-25T01:50:50;34.70;;;33.30;;
16626;SDS011;8427;52.204;7.202;2023-04-25T01:53:18;36.90;;;35.10;;
16626;SDS011;8427;52.204;7.202;2023-04-25T01:55:47;35.93;;;34.33;;
16626;SDS011;8427;52.204;7.202;2023-04-25T01:58:15;36.40;;;34.70;;
16626;SDS011;8427;52.204;7.202;2023-04-25T02:00:43;35.97;;;34.37;;
16626;SDS011;8427;52.204;7.202;2023-04-25T02:03:11;35.43;;;33.90;;
16626;SDS011;8427;52.204;7.202;2023-04-25T02:05:39;36.23;;;34.63;;
16626;SDS011;8427;52.204;7.202;2023-04-25T02:08:08;35.57;;;34.07;;
16626;SDS011;8427;52.204;7.202;2023-04-25T02:10:37;37.13;;;35.43;;
16626;SDS011;8427;52.204;7.202;2023-04-25T02:13:06;35.50;;;34.00;;
16626;SDS011;8427;52.204;7.202;2023-04-25T02:15:34;36.50;;;34.90;;
16626;SDS011;8427;52.204;7.202;2023-04-25T02:18:02;36.40;;;34.80;;
16626;SDS011;8427;52.204;7.202;2023-04-25T02:20:32;38.70;;;36.80;;
16626;SDS011;8427;52.204;7.202;2023-04-25T02:23:00;35.60;;;34.10;;
16626;SDS011;8427;52.204;7.202;2023-04-25T02:25:29;35.93;;;34.43;;
16626;SDS011;8427;52.204;7.202;2023-04-25T02:27:57;36.23;;;34.67;;
16626;SDS011;8427;52.204;7.202;2023-04-25T02:30:26;38.87;;;36.70;;
16626;SDS011;8427;52.204;7.202;2023-04-25T02:32:54;35.60;;;34.10;;
16626;SDS011;8427;52.204;7.202;2023-04-25T02:35:22;36.07;;;34.47;;
16626;SDS011;8427;52.204;7.202;2023-04-25T02:37:51;35.40;;;33.90;;
16626;SDS011;8427;52.204;7.202;2023-04-25T02:40:19;36.10;;;34.50;;
16626;SDS011;8427;52.204;7.202;2023-04-25T02:42:47;36.00;;;34.40;;
16626;SDS011;8427;52.204;7.202;2023-04-25T02:45:15;37.20;;;35.50;;
16626;SDS011;8427;52.204;7.202;2023-04-25T02:47:45;35.53;;;34.03;;
16626;SDS011;8427;52.204;7.202;2023-04-25T02:50:13;36.50;;;34.90;;
16626;SDS011;8427;52.204;7.202;2023-04-25T02:52:40;36.97;;;35.13;;
16626;SDS011;8427;52.204;7.202;2023-04-25T02:55:08;35.57;;;34.07;;
16626;SDS011;8427;52.204;7.202;2023-04-25T02:57:36;36.10;;;34.50;;
16626;SDS011;8427;52.204;7.202;2023-04-25T03:00:05;37.73;;;35.83;;
16626;SDS011;8427;52.204;7.202;2023-04-25T03:02:34;36.20;;;34.60;;
16626;SDS011;8427;52.204;7.202;2023-04-25T03:05:04;36.53;;;34.93;;
16626;SDS011;8427;52.204;7.202;2023-04-25T03:07:32;36.07;;;34.47;;
16626;SDS011;8427;52.204;7.202;2023-04-25T03:10:00;38.23;;;36.00;;
16626;SDS011;8427;52.204;7.202;2023-04-25T03:12:28;35.70;;;34.20;;
16626;SDS011;8427;52.204;7.202;2023-04-25T03:14:56;36.10;;;34.50;;
16626;SDS011;8427;52.204;7.202;2023-04-25T03:17:24;37.97;;;36.13;;
16626;SDS011;8427;52.204;7.202;2023-04-25T03:19:53;36.57;;;34.93;;
16626;SDS011;8427;52.204;7.202;2023-04-25T03:22:22;37.00;;;35.30;;
16626;SDS011;8427;52.204;7.202;2023-04-25T03:24:50;37.00;;;35.30;;
16626;SDS011;8427;52.204;7.202;2023-04-25T03:27:18;38.40;;;36.50;;
16626;SDS011;8427;52.204;7.202;2023-04-25T03:29:46;39.60;;;37.60;;
16626;SDS011;8427;52.204;7.202;2023-04-25T03:32:15;39.50;;;37.50;;
16626;SDS011;8427;52.204;7.202;2023-04-25T03:34:43;40.30;;;38.20;;
16626;SDS011;8427;52.204;7.202;2023-04-25T03:37:11;38.33;;;36.43;;
16626;SDS011;8427;52.204;7.202;2023-04-25T03:39:40;37.80;;;36.00;;
16626;SDS011;8427;52.204;7.202;2023-04-25T03:42:08;39.83;;;37.73;;
16626;SDS011;8427;52.204;7.202;2023-04-25T03:44:36;37.37;;;35.57;;
16626;SDS011;8427;52.204;7.202;2023-04-25T03:47:04;38.97;;;36.97;;
16626;SDS011;8427;52.204;7.202;2023-04-25T03:49:32;39.60;;;37.60;;
16626;SDS011;8427;52.204;7.202;2023-04-25T03:52:02;37.93;;;36.07;;
16626;SDS011;8427;52.204;7.202;2023-04-25T03:54:30;37.80;;;36.00;;
16626;SDS011;8427;52.204;7.202;2023-04-25T03:57:01;38.97;;;36.80;;
16626;SDS011;8427;52.204;7.202;2023-04-25T03:59:29;36.90;;;35.20;;
16626;SDS011;8427;52.204;7.202;2023-04-25T04:01:57;36.63;;;34.93;;
16626;SDS011;8427;52.204;7.202;2023-04-25T04:04:25;38.90;;;36.97;;
16626;SDS011;8427;52.204;7.202;2023-04-25T04:06:53;37.50;;;35.60;;
16626;SDS011;8427;52.204;7.202;2023-04-25T04:09:21;38.37;;;36.47;;
16626;SDS011;8427;52.204;7.202;2023-04-25T04:11:49;36.83;;;35.13;;
16626;SDS011;8427;52.204;7.202;2023-04-25T04:14:19;37.53;;;35.73;;
16626;SDS011;8427;52.204;7.202;2023-04-25T04:16:47;36.60;;;34.90;;
16626;SDS011;8427;52.204;7.202;2023-04-25T04:19:15;40.17;;;38.00;;
16626;SDS011;8427;52.204;7.202;2023-04-25T04:21:43;37.07;;;35.23;;
16626;SDS011;8427;52.204;7.202;2023-04-25T04:24:11;38.90;;;36.90;;
16626;SDS011;8427;52.204;7.202;2023-04-25T04:26:39;39.70;;;37.60;;
16626;SDS011;8427;52.204;7.202;2023-04-25T04:29:07;40.63;;;38.35;;
16626;SDS011;8427;52.204;7.202;2023-04-25T04:31:36;41.10;;;38.80;;
16626;SDS011;8427;52.204;7.202;2023-04-25T04:34:04;41.10;;;38.72;;
16626;SDS011;8427;52.204;7.202;2023-04-25T04:36:32;42.85;;;40.25;;
16626;SDS011;8427;52.204;7.202;2023-04-25T04:39:00;41.40;;;39.00;;
16626;SDS011;8427;52.204;7.202;2023-04-25T04:41:29;41.28;;;38.88;;
16626;SDS011;8427;52.204;7.202;2023-04-25T04:43:57;41.77;;;39.17;;
16626;SDS011;8427;52.204;7.202;2023-04-25T04:46:27;41.40;;;38.90;;
16626;SDS011;8427;52.204;7.202;2023-04-25T04:48:56;42.42;;;39.63;;
16626;SDS011;8427;52.204;7.202;2023-04-25T04:51:24;42.35;;;39.55;;
16626;SDS011;8427;52.204;7.202;2023-04-25T04:53:52;42.65;;;39.85;;
16626;SDS011;8427;52.204;7.202;2023-04-25T04:56:24;41.60;;;39.00;;
16626;SDS011;8427;52.204;7.202;2023-04-25T04:58:52;43.40;;;40.50;;
16626;SDS011;8427;52.204;7.202;2023-04-25T05:01:20;40.90;;;38.40;;
16626;SDS011;8427;52.204;7.202;2023-04-25T05:03:49;41.60;;;38.90;;
16626;SDS011;8427;52.204;7.202;2023-04-25T05:06:19;41.10;;;38.60;;
16626;SDS011;8427;52.204;7.202;2023-04-25T05:08:47;39.77;;;37.37;;
16626;SDS011;8427;52.204;7.202;2023-04-25T05:11:15;41.58;;;38.97;;
16626;SDS011;8427;52.204;7.202;2023-04-25T05:13:43;41.83;;;39.13;;
16626;SDS011;8427;52.204;7.202;2023-04-25T05:16:11;41.90;;;39.30;;
16626;SDS011;8427;52.204;7.202;2023-04-25T05:18:39;42.47;;;39.67;;
16626;SDS011;8427;52.204;7.202;2023-04-25T05:21:07;41.47;;;38.83;;
16626;SDS011;8427;52.204;7.202;2023-04-25T05:23:36;39.92;;;37.60;;
16626;SDS011;8427;52.204;7.202;2023-04-25T05:26:05;42.30;;;39.60;;
16626;SDS011;8427;52.204;7.202;2023-04-25T05:28:39;40.07;;;37.67;;
16626;SDS011;8427;52.204;7.202;2023-04-25T05:31:08;40.80;;;38.30;;
16626;SDS011;8427;52.204;7.202;2023-04-25T05:33:37;41.22;;;38.72;;
16626;SDS011;8427;52.204;7.202;2023-04-25T05:36:05;41.70;;;39.10;;
16626;SDS011;8427;52.204;7.202;2023-04-25T05:38:34;40.33;;;37.92;;
16626;SDS011;8427;52.204;7.202;2023-04-25T05:41:03;42.20;;;39.50;;
16626;SDS011;8427;52.204;7.202;2023-04-25T05:43:31;40.10;;;37.73;;
16626;SDS011;8427;52.204;7.202;2023-04-25T05:45:59;43.17;;;39.97;;
16626;SDS011;8427;52.204;7.202;2023-04-25T05:48:27;41.70;;;39.10;;
16626;SDS011;8427;52.204;7.202;2023-04-25T05:50:56;41.50;;;38.90;;
16626;SDS011;8427;52.204;7.202;2023-04-25T05:53:24;41.03;;;38.20;;
16626;SDS011;8427;52.204;7.202;2023-04-25T05:55:52;42.08;;;39.08;;
16626;SDS011;8427;52.204;7.202;2023-04-25T05:58:21;41.70;;;39.10;;
16626;SDS011;8427;52.204;7.202;2023-04-25T06:00:50;40.20;;;37.80;;
16626;SDS011;8427;52.204;7.202;2023-04-25T06:03:18;39.40;;;37.20;;
16626;SDS011;8427;52.204;7.202;2023-04-25T06:05:46;38.83;;;36.70;;
16626;SDS011;8427;52.204;7.202;2023-04-25T06:08:15;40.60;;;37.77;;
16626;SDS011;8427;52.204;7.202;2023-04-25T06:10:43;38.77;;;36.60;;
16626;SDS011;8427;52.204;7.202;2023-04-25T06:13:11;38.53;;;36.43;;
16626;SDS011;8427;52.204;7.202;2023-04-25T06:15:40;40.60;;;38.20;;
16626;SDS011;8427;52.204;7.202;2023-04-25T06:18:09;41.63;;;39.03;;
16626;SDS011;8427;52.204;7.202;2023-04-25T06:20:37;42.45;;;39.75;;
16626;SDS011;8427;52.204;7.202;2023-04-25T06:23:05;42.10;;;39.40;;
16626;SDS011;8427;52.204;7.202;2023-04-25T06:25:33;42.67;;;39.78;;
16626;SDS011;8427;52.204;7.202;2023-04-25T06:28:01;42.50;;;39.70;;
16626;SDS011;8427;52.204;7.202;2023-04-25T06:30:29;41.25;;;38.65;;
16626;SDS011;8427;52.204;7.202;2023-04-25T06:32:58;41.80;;;39.10;;
16626;SDS011;8427;52.204;7.202;2023-04-25T06:35:26;42.50;;;39.70;;
16626;SDS011;8427;52.204;7.202;2023-04-25T06:37:54;40.80;;;38.20;;
16626;SDS011;8427;52.204;7.202;2023-04-25T06:40:22;42.30;;;39.30;;
16626;SDS011;8427;52.204;7.202;2023-04-25T06:42:50;41.80;;;39.00;;
16626;SDS011;8427;52.204;7.202;2023-04-25T06:45:18;43.00;;;40.00;;
16626;SDS011;8427;52.204;7.202;2023-04-25T06:47:46;42.00;;;39.20;;
16626;SDS011;8427;52.204;7.202;2023-04-25T06:50:16;43.33;;;40.22;;
16626;SDS011;8427;52.204;7.202;2023-04-25T06:52:44;43.60;;;40.50;;
16626;SDS011;8427;52.204;7.202;2023-04-25T06:55:12;42.25;;;39.30;;
16626;SDS011;8427;52.204;7.202;2023-04-25T06:57:40;42.80;;;39.70;;
16626;SDS011;8427;52.204;7.202;2023-04-25T07:00:08;43.47;;;40.40;;
16626;SDS011;8427;52.204;7.202;2023-04-25T07:02:37;43.53;;;40.33;;
16626;SDS011;8427;52.204;7.202;2023-04-25T07:05:05;41.10;;;38.40;;
16626;SDS011;8427;52.204;7.202;2023-04-25T07:07:35;40.50;;;37.90;;
16626;SDS011;8427;52.204;7.202;2023-04-25T07:10:03;40.50;;;37.90;;
16626;SDS011;8427;52.204;7.202;2023-04-25T07:12:31;40.70;;;38.10;;
16626;SDS011;8427;52.204;7.202;2023-04-25T07:14:59;40.87;;;38.17;;
16626;SDS011;8427;52.204;7.202;2023-04-25T07:17:32;40.67;;;38.07;;
16626;SDS011;8427;52.204;7.202;2023-04-25T07:20:01;40.13;;;37.63;;
16626;SDS011;8427;52.204;7.202;2023-04-25T07:22:29;40.00;;;37.50;;
16626;SDS011;8427;52.204;7.202;2023-04-25T07:24:59;42.80;;;39.80;;
16626;SDS011;8427;52.204;7.202;2023-04-25T07:27:27;43.20;;;40.00;;
16626;SDS011;8427;52.204;7.202;2023-04-25T07:29:55;41.57;;;38.67;;
16626;SDS011;8427;52.204;7.202;2023-04-25T07:32:23;41.87;;;38.97;;
16626;SDS011;8427;52.204;7.202;2023-04-25T07:34:52;40.87;;;38.17;;
16626;SDS011;8427;52.204;7.202;2023-04-25T07:37:20;40.97;;;38.17;;
16626;SDS011;8427;52.204;7.202;2023-04-25T07:39:48;41.13;;;38.33;;
16626;SDS011;8427;52.204;7.202;2023-04-25T07:42:18;41.13;;;38.33;;
16626;SDS011;8427;52.204;7.202;2023-04-25T07:44:46;42.38;;;39.38;;
16626;SDS011;8427;52.204;7.202;2023-04-25T07:47:13;43.88;;;40.58;;
16626;SDS011;8427;52.204;7.202;2023-04-25T07:49:41;44.75;;;41.25;;
16626;SDS011;8427;52.204;7.202;2023-04-25T07:52:09;45.20;;;41.60;;
16626;SDS011;8427;52.204;7.202;2023-04-25T07:54:37;45.20;;;41.50;;
16626;SDS011;8427;52.204;7.202;2023-04-25T07:57:05;44.50;;;41.00;;
16626;SDS011;8427;52.204;7.202;2023-04-25T07:59:35;45.90;;;42.20;;
16626;SDS011;8427;52.204;7.202;2023-04-25T08:02:03;45.10;;;41.50;;
16626;SDS011;8427;52.204;7.202;2023-04-25T08:04:31;45.65;;;41.95;;
16626;SDS011;8427;52.204;7.202;2023-04-25T08:06:59;43.40;;;40.20;;
16626;SDS011;8427;52.204;7.202;2023-04-25T08:09:27;45.80;;;42.20;;
16626;SDS011;8427;52.204;7.202;2023-04-25T08:12:00;44.60;;;41.20;;
16626;SDS011;8427;52.204;7.202;2023-04-25T08:14:28;44.97;;;41.47;;
16626;SDS011;8427;52.204;7.202;2023-04-25T08:17:03;45.40;;;41.80;;
16626;SDS011;8427;52.204;7.202;2023-04-25T08:19:31;45.40;;;41.80;;
16626;SDS011;8427;52.204;7.202;2023-04-25T08:21:59;45.28;;;41.70;;
16626;SDS011;8427;52.204;7.202;2023-04-25T08:24:27;44.95;;;41.45;;
16626;SDS011;8427;52.204;7.202;2023-04-25T08:26:55;44.80;;;41.20;;
16626;SDS011;8427;52.204;7.202;2023-04-25T08:29:24;46.45;;;42.70;;
16626;SDS011;8427;52.204;7.202;2023-04-25T08:31:54;44.85;;;41.35;;
16626;SDS011;8427;52.204;7.202;2023-04-25T08:34:24;44.33;;;41.00;;
16626;SDS011;8427;52.204;7.202;2023-04-25T08:36:52;43.57;;;40.37;;
16626;SDS011;8427;52.204;7.202;2023-04-25T08:39:20;44.30;;;40.90;;
16626;SDS011;8427;52.204;7.202;2023-04-25T08:41:48;43.10;;;40.00;;
16626;SDS011;8427;52.204;7.202;2023-04-25T08:44:18;43.67;;;40.37;;
16626;SDS011;8427;52.204;7.202;2023-04-25T08:46:48;43.60;;;40.20;;
16626;SDS011;8427;52.204;7.202;2023-04-25T08:49:16;43.53;;;40.23;;
16626;SDS011;8427;52.204;7.202;2023-04-25T08:51:46;45.17;;;41.58;;
16626;SDS011;8427;52.204;7.202;2023-04-25T08:54:16;43.40;;;40.20;;
16626;SDS011;8427;52.204;7.202;2023-04-25T08:57:01;45.30;;;41.60;;
16626;SDS011;8427;52.204;7.202;2023-04-25T08:59:31;44.78;;;41.28;;
16626;SDS011;8427;52.204;7.202;2023-04-25T09:02:03;43.03;;;39.83;;
16626;SDS011;8427;52.204;7.202;2023-04-25T09:04:31;44.70;;;41.03;;
16626;SDS011;8427;52.204;7.202;2023-04-25T09:07:00;45.47;;;41.77;;
16626;SDS011;8427;52.204;7.202;2023-04-25T09:09:29;45.50;;;41.90;;
16626;SDS011;8427;52.204;7.202;2023-04-25T09:11:57;43.70;;;40.40;;
16626;SDS011;8427;52.204;7.202;2023-04-25T09:14:28;43.20;;;40.00;;
16626;SDS011;8427;52.204;7.202;2023-04-25T09:16:59;44.60;;;41.10;;
16626;SDS011;8427;52.204;7.202;2023-04-25T09:19:30;43.40;;;40.10;;
16626;SDS011;8427;52.204;7.202;2023-04-25T09:22:03;45.05;;;41.45;;
16626;SDS011;8427;52.204;7.202;2023-04-25T09:24:32;45.80;;;42.10;;
16626;SDS011;8427;52.204;7.202;2023-04-25T09:27:05;45.10;;;41.50;;
16626;SDS011;8427;52.204;7.202;2023-04-25T09:29:34;46.27;;;42.47;;
16626;SDS011;8427;52.204;7.202;2023-04-25T09:34:49;43.97;;;40.47;;
16626;SDS011;8427;52.204;7.202;2023-04-25T09:37:19;44.05;;;40.65;;
16626;SDS011;8427;52.204;7.202;2023-04-25T09:39:49;46.25;;;42.45;;
16626;SDS011;8427;52.204;7.202;2023-04-25T09:42:18;45.05;;;41.45;;
16626;SDS011;8427;52.204;7.202;2023-04-25T09:44:51;46.00;;;42.20;;
16626;SDS011;8427;52.204;7.202;2023-04-25T09:47:20;46.20;;;42.40;;
16626;SDS011;8427;52.204;7.202;2023-04-25T09:49:50;44.93;;;41.33;;
16626;SDS011;8427;52.204;7.202;2023-04-25T09:52:21;43.20;;;39.90;;
16626;SDS011;8427;52.204;7.202;2023-04-25T09:54:51;42.90;;;39.70;;
16626;SDS011;8427;52.204;7.202;2023-04-25T09:57:21;42.97;;;39.77;;
16626;SDS011;8427;52.204;7.202;2023-04-25T09:59:50;43.93;;;40.20;;
16626;SDS011;8427;52.204;7.202;2023-04-25T10:02:20;42.60;;;39.50;;
16626;SDS011;8427;52.204;7.202;2023-04-25T10:04:49;42.70;;;39.50;;
16626;SDS011;8427;52.204;7.202;2023-04-25T10:07:22;44.28;;;40.78;;
16626;SDS011;8427;52.204;7.202;2023-04-25T10:09:56;45.85;;;42.10;;
16626;SDS011;8427;52.204;7.202;2023-04-25T10:12:28;43.63;;;40.30;;
16626;SDS011;8427;52.204;7.202;2023-04-25T10:14:57;42.67;;;39.47;;
16626;SDS011;8427;52.204;7.202;2023-04-25T10:17:26;42.90;;;39.70;;
16626;SDS011;8427;52.204;7.202;2023-04-25T10:19:55;44.58;;;40.97;;
16626;SDS011;8427;52.204;7.202;2023-04-25T10:22:26;46.30;;;42.20;;
16626;SDS011;8427;52.204;7.202;2023-04-25T10:24:58;44.13;;;40.67;;
16626;SDS011;8427;52.204;7.202;2023-04-25T10:27:26;45.00;;;41.40;;
16626;SDS011;8427;52.204;7.202;2023-04-25T10:30:02;45.70;;;41.80;;
16626;SDS011;8427;52.204;7.202;2023-04-25T10:32:31;45.70;;;41.83;;
16626;SDS011;8427;52.204;7.202;2023-04-25T10:35:09;47.05;;;43.13;;
16626;SDS011;8427;52.204;7.202;2023-04-25T10:37:39;45.63;;;42.03;;
16626;SDS011;8427;52.204;7.202;2023-04-25T10:40:24;44.70;;;41.40;;
16626;SDS011;8427;52.204;7.202;2023-04-25T10:42:53;44.20;;;41.00;;
16626;SDS011;8427;52.204;7.202;2023-04-25T10:45:22;41.60;;;38.70;;
16626;SDS011;8427;52.204;7.202;2023-04-25T10:47:50;42.07;;;39.20;;
16626;SDS011;8427;52.204;7.202;2023-04-25T10:50:18;45.65;;;41.88;;
16626;SDS011;8427;52.204;7.202;2023-04-25T10:52:47;43.70;;;40.50;;
16626;SDS011;8427;52.204;7.202;2023-04-25T10:55:15;44.92;;;41.60;;
16626;SDS011;8427;52.204;7.202;2023-04-25T10:57:44;44.60;;;41.20;;
16626;SDS011;8427;52.204;7.202;2023-04-25T11:00:15;45.60;;;42.10;;
16626;SDS011;8427;52.204;7.202;2023-04-25T11:02:45;46.60;;;42.80;;
16626;SDS011;8427;52.204;7.202;2023-04-25T11:05:22;45.28;;;41.78;;
16626;SDS011;8427;52.204;7.202;2023-04-25T11:07:59;45.10;;;41.50;;
16626;SDS011;8427;52.204;7.202;2023-04-25T11:10:33;46.00;;;42.20;;
16626;SDS011;8427;52.204;7.202;2023-04-25T11:13:02;45.25;;;41.75;;
16626;SDS011;8427;52.204;7.202;2023-04-25T11:15:31;45.70;;;42.20;;
16626;SDS011;8427;52.204;7.202;2023-04-25T11:17:58;46.10;;;42.40;;
16626;SDS011;8427;52.204;7.202;2023-04-25T11:20:27;47.15;;;43.15;;
16626;SDS011;8427;52.204;7.202;2023-04-25T11:22:57;46.45;;;42.65;;
16626;SDS011;8427;52.204;7.202;2023-04-25T11:25:27;47.00;;;43.20;;
16626;SDS011;8427;52.204;7.202;2023-04-25T11:27:56;47.85;;;43.65;;
16626;SDS011;8427;52.204;7.202;2023-04-25T11:30:26;47.10;;;43.20;;
16626;SDS011;8427;52.204;7.202;2023-04-25T11:32:55;47.08;;;43.17;;
16626;SDS011;8427;52.204;7.202;2023-04-25T11:35:23;48.00;;;43.90;;
16626;SDS011;8427;52.204;7.202;2023-04-25T11:37:52;46.75;;;42.92;;
16626;SDS011;8427;52.204;7.202;2023-04-25T11:40:20;46.70;;;42.80;;
16626;SDS011;8427;52.204;7.202;2023-04-25T11:42:49;46.05;;;42.33;;
16626;SDS011;8427;52.204;7.202;2023-04-25T11:45:20;46.08;;;42.33;;
16626;SDS011;8427;52.204;7.202;2023-04-25T11:47:50;46.70;;;42.90;;
16626;SDS011;8427;52.204;7.202;2023-04-25T11:50:19;46.40;;;42.60;;
16626;SDS011;8427;52.204;7.202;2023-04-25T11:52:47;46.72;;;42.88;;
16626;SDS011;8427;52.204;7.202;2023-04-25T11:55:17;46.20;;;42.40;;
16626;SDS011;8427;52.204;7.202;2023-04-25T11:57:47;47.30;;;43.40;;
16626;SDS011;8427;52.204;7.202;2023-04-25T12:00:18;46.10;;;42.30;;
16626;SDS011;8427;52.204;7.202;2023-04-25T12:02:47;47.10;;;43.10;;
16626;SDS011;8427;52.204;7.202;2023-04-25T12:05:19;47.20;;;43.30;;
16626;SDS011;8427;52.204;7.202;2023-04-25T12:08:09;46.97;;;42.97;;
16626;SDS011;8427;52.204;7.202;2023-04-25T12:10:39;47.30;;;43.30;;
16626;SDS011;8427;52.204;7.202;2023-04-25T12:13:19;48.60;;;44.25;;
16626;SDS011;8427;52.204;7.202;2023-04-25T12:15:48;48.67;;;44.47;;
16626;SDS011;8427;52.204;7.202;2023-04-25T12:18:18;48.45;;;44.05;;
16626;SDS011;8427;52.204;7.202;2023-04-25T12:20:47;48.08;;;43.97;;
16626;SDS011;8427;52.204;7.202;2023-04-25T12:23:16;48.95;;;44.35;;
16626;SDS011;8427;52.204;7.202;2023-04-25T12:25:44;47.78;;;43.67;;
16626;SDS011;8427;52.204;7.202;2023-04-25T12:28:13;48.47;;;44.17;;
16626;SDS011;8427;52.204;7.202;2023-04-25T12:30:53;47.50;;;43.50;;
16626;SDS011;8427;52.204;7.202;2023-04-25T12:33:22;45.80;;;42.30;;
16626;SDS011;8427;52.204;7.202;2023-04-25T12:35:50;46.47;;;42.88;;
16626;SDS011;8427;52.204;7.202;2023-04-25T12:38:22;42.17;;;39.30;;
16626;SDS011;8427;52.204;7.202;2023-04-25T12:40:51;41.87;;;39.07;;
16626;SDS011;8427;52.204;7.202;2023-04-25T12:43:19;40.90;;;38.30;;
16626;SDS011;8427;52.204;7.202;2023-04-25T12:45:47;42.00;;;39.13;;
16626;SDS011;8427;52.204;7.202;2023-04-25T12:48:18;39.87;;;37.47;;
16626;SDS011;8427;52.204;7.202;2023-04-25T12:50:47;41.67;;;38.97;;
16626;SDS011;8427;52.204;7.202;2023-04-25T12:53:15;40.37;;;37.73;;
16626;SDS011;8427;52.204;7.202;2023-04-25T12:55:44;41.80;;;38.90;;
16626;SDS011;8427;52.204;7.202;2023-04-25T12:58:13;40.73;;;38.17;;
16626;SDS011;8427;52.204;7.202;2023-04-25T13:00:41;39.37;;;37.17;;
16626;SDS011;8427;52.204;7.202;2023-04-25T13:03:09;39.43;;;37.17;;
16626;SDS011;8427;52.204;7.202;2023-04-25T13:05:40;41.47;;;38.77;;
16626;SDS011;8427;52.204;7.202;2023-04-25T13:08:08;41.03;;;38.33;;
16626;SDS011;8427;52.204;7.202;2023-04-25T13:10:36;42.08;;;39.28;;
16626;SDS011;8427;52.204;7.202;2023-04-25T13:13:05;40.67;;;38.17;;
16626;SDS011;8427;52.204;7.202;2023-04-25T13:15:33;43.13;;;40.13;;
16626;SDS011;8427;52.204;7.202;2023-04-25T13:18:02;44.20;;;41.00;;
16626;SDS011;8427;52.204;7.202;2023-04-25T13:20:31;44.20;;;40.80;;
16626;SDS011;8427;52.204;7.202;2023-04-25T13:23:01;45.70;;;42.00;;
16626;SDS011;8427;52.204;7.202;2023-04-25T13:25:29;46.03;;;42.38;;
16626;SDS011;8427;52.204;7.202;2023-04-25T13:27:56;47.75;;;43.65;;
16626;SDS011;8427;52.204;7.202;2023-04-25T13:30:24;46.30;;;42.60;;
16626;SDS011;8427;52.204;7.202;2023-04-25T13:32:53;47.03;;;43.20;;
16626;SDS011;8427;52.204;7.202;2023-04-25T13:35:23;48.03;;;43.92;;
16626;SDS011;8427;52.204;7.202;2023-04-25T13:37:52;46.80;;;42.90;;
16626;SDS011;8427;52.204;7.202;2023-04-25T13:40:21;47.80;;;43.50;;
16626;SDS011;8427;52.204;7.202;2023-04-25T13:42:51;48.20;;;43.70;;
16626;SDS011;8427;52.204;7.202;2023-04-25T13:45:19;47.80;;;43.80;;
16626;SDS011;8427;52.204;7.202;2023-04-25T13:47:47;47.65;;;43.60;;
16626;SDS011;8427;52.204;7.202;2023-04-25T13:50:16;47.10;;;43.20;;
16626;SDS011;8427;52.204;7.202;2023-04-25T13:52:44;47.92;;;43.85;;
16626;SDS011;8427;52.204;7.202;2023-04-25T13:55:13;47.28;;;43.28;;
16626;SDS011;8427;52.204;7.202;2023-04-25T13:57:42;47.20;;;43.20;;
16626;SDS011;8427;52.204;7.202;2023-04-25T14:00:10;47.50;;;43.53;;
16626;SDS011;8427;52.204;7.202;2023-04-25T14:02:39;46.90;;;42.80;;
16626;SDS011;8427;52.204;7.202;2023-04-25T14:05:07;45.70;;;42.10;;
16626;SDS011;8427;52.204;7.202;2023-04-25T14:07:36;46.25;;;42.55;;
16626;SDS011;8427;52.204;7.202;2023-04-25T14:10:04;45.33;;;41.83;;
16626;SDS011;8427;52.204;7.202;2023-04-25T14:12:33;45.80;;;42.20;;
16626;SDS011;8427;52.204;7.202;2023-04-25T14:15:03;46.67;;;42.58;;
16626;SDS011;8427;52.204;7.202;2023-04-25T14:17:32;45.97;;;42.28;;
16626;SDS011;8427;52.204;7.202;2023-04-25T14:20:00;48.50;;;44.00;;
16626;SDS011;8427;52.204;7.202;2023-04-25T14:22:28;47.70;;;43.70;;
16626;SDS011;8427;52.204;7.202;2023-04-25T14:24:56;46.85;;;43.05;;
16626;SDS011;8427;52.204;7.202;2023-04-25T14:27:24;46.63;;;42.83;;
16626;SDS011;8427;52.204;7.202;2023-04-25T14:29:54;47.30;;;43.40;;
16626;SDS011;8427;52.204;7.202;2023-04-25T14:32:23;46.90;;;43.10;;
16626;SDS011;8427;52.204;7.202;2023-04-25T14:34:51;47.47;;;43.55;;
16626;SDS011;8427;52.204;7.202;2023-04-25T14:37:19;48.00;;;43.80;;
16626;SDS011;8427;52.204;7.202;2023-04-25T14:39:47;48.67;;;44.17;;
16626;SDS011;8427;52.204;7.202;2023-04-25T14:42:15;48.35;;;44.03;;
16626;SDS011;8427;52.204;7.202;2023-04-25T14:44:43;48.80;;;44.10;;
16626;SDS011;8427;52.204;7.202;2023-04-25T14:47:11;49.40;;;44.90;;